Archival Weather

Snohomish County (Paine Fld)

Everett, Washington (KPAE)

Report from: Friday, November 10, 2023 12:53 PM PST
Current time: Monday, June 17, 2024 12:12 AM PDT

Current weather – Weather history – Daily summaries
Weather forecast

Present weatherLight rain
Temperature9.4°C (48.9°F)
Wind chill6.1°C (43.0°F)
Dew point6.1°C (43.0°F)
Winds 14 kts (7.2 m/s, 16.1 mph) South (180°)
Wind gusts 21 kts (10.8 m/s, 24.2 mph)
Peak wind 27 kts (13.9 m/s, 31.1 mph) South (180°) at 19:54
Visibility10 mi. (16.1 km)
Clouds Few clouds 1,500 ft. (457 m)
Ceiling: Broken clouds 4,800 ft. (1,463 m)
Overcast 6,000 ft. (1,829 m)
Altimeter30.11 in.Hg (1020 mB)
Precipitiation0.01 in. (0 mm)
Precip last 3 hours0.01 in. (0 mm)
Relative humidity80 %
Density altitude-756 ft. (-230 m)
Sea-level pressure102.0 kPa (1020 mB, 30.11 in.Hg)
Remarks Automated weather observing station with precipitation discriminator
Pressure falling more quickly
Flight conditions Visual Meteorological Conditions
Raw dataKPAE 102053Z 18014G21KT 10SM -RA FEW015 BKN048 OVC060 09/06 A3011 RMK AO2 PK WND 18027/1954 SLP198 P0001 60001 T00940061 58002
An error has occurred. This application may no longer respond until reloaded. Reload 🗙